createdAt,value
2019-01-14T00:00:51.963Z,2.70
2019-01-14T00:03:19.655Z,2.70
2019-01-14T00:05:47.515Z,2.70
2019-01-14T00:08:15.372Z,2.70
2019-01-14T00:10:43.132Z,2.70
2019-01-14T00:13:11.066Z,2.80
2019-01-14T00:15:38.810Z,2.70
2019-01-14T00:18:07.483Z,2.70
2019-01-14T00:20:35.256Z,2.70
2019-01-14T00:23:03.050Z,2.70
2019-01-14T00:25:30.818Z,2.70
2019-01-14T00:27:58.545Z,2.70
2019-01-14T00:30:26.311Z,2.80
2019-01-14T00:32:54.203Z,2.80
2019-01-14T00:35:21.961Z,2.80
2019-01-14T00:37:49.706Z,2.80
2019-01-14T00:40:17.587Z,2.80
2019-01-14T00:42:45.932Z,2.80
2019-01-14T00:45:13.944Z,2.80
2019-01-14T00:47:42.569Z,2.70
2019-01-14T00:50:11.690Z,2.70
2019-01-14T00:52:39.787Z,2.80
2019-01-14T00:55:09.424Z,2.80
2019-01-14T00:57:37.276Z,2.80
2019-01-14T01:00:09.448Z,2.80
2019-01-14T01:02:38.844Z,2.70
2019-01-14T01:05:07.017Z,2.80
2019-01-14T01:07:34.878Z,2.70
2019-01-14T01:10:04.105Z,2.70
2019-01-14T01:12:32.866Z,2.80
2019-01-14T01:15:00.801Z,2.70
2019-01-14T01:17:28.715Z,2.70
2019-01-14T01:19:56.777Z,2.70
2019-01-14T01:22:24.551Z,2.70
2019-01-14T01:24:52.305Z,2.80
2019-01-14T01:27:20.057Z,2.70
2019-01-14T01:29:47.979Z,2.80
2019-01-14T01:32:15.798Z,2.80
2019-01-14T01:34:44.851Z,2.70
2019-01-14T01:37:12.517Z,2.70
2019-01-14T01:39:40.974Z,2.60
2019-01-14T01:42:08.717Z,2.40
2019-01-14T01:44:36.466Z,2.20
2019-01-14T01:47:04.394Z,2.10
2019-01-14T01:49:32.328Z,2.10
2019-01-14T01:52:00.322Z,2.00
2019-01-14T01:54:28.056Z,2.00
2019-01-14T01:56:55.814Z,2.00
2019-01-14T01:59:23.515Z,1.90
2019-01-14T02:01:51.471Z,2.00
2019-01-14T02:04:19.413Z,1.90
2019-01-14T02:06:48.867Z,1.90
2019-01-14T02:09:16.672Z,1.90
2019-01-14T02:11:44.546Z,1.90
2019-01-14T02:14:14.684Z,1.90
2019-01-14T02:16:42.848Z,1.80
2019-01-14T02:19:10.759Z,1.80
2019-01-14T02:21:38.719Z,1.70
2019-01-14T02:24:06.604Z,1.60
2019-01-14T02:26:35.005Z,1.50
2019-01-14T02:29:04.339Z,1.50
2019-01-14T02:31:33.020Z,1.50
2019-01-14T02:34:01.696Z,1.40
2019-01-14T02:36:30.530Z,1.40
2019-01-14T02:38:59.250Z,1.50
2019-01-14T02:41:27.865Z,1.50
2019-01-14T02:43:56.465Z,1.50
2019-01-14T02:46:25.176Z,1.50
2019-01-14T02:48:53.755Z,1.50
2019-01-14T02:51:22.514Z,1.60
2019-01-14T02:53:51.241Z,1.60
2019-01-14T02:56:19.848Z,1.70
2019-01-14T02:58:48.464Z,1.70
2019-01-14T03:01:17.053Z,1.80
2019-01-14T03:03:46.296Z,1.80
2019-01-14T03:06:14.978Z,1.80
2019-01-14T03:08:44.172Z,1.80
2019-01-14T03:11:12.867Z,1.80
2019-01-14T03:13:41.552Z,1.80
2019-01-14T03:16:10.189Z,1.80
2019-01-14T03:18:38.985Z,1.80
2019-01-14T03:21:07.772Z,1.80
2019-01-14T03:23:36.364Z,1.80
2019-01-14T03:26:05.222Z,1.80
2019-01-14T03:28:33.779Z,1.80
2019-01-14T03:31:02.399Z,1.80
2019-01-14T03:33:31.095Z,1.80
2019-01-14T03:35:59.725Z,1.80
2019-01-14T03:38:28.246Z,1.80
2019-01-14T03:40:56.964Z,1.80
2019-01-14T03:43:25.684Z,1.80
2019-01-14T03:45:54.214Z,1.80
2019-01-14T03:48:22.892Z,1.80
2019-01-14T03:50:51.683Z,1.80
2019-01-14T03:53:20.312Z,1.80
2019-01-14T03:55:48.844Z,1.80
2019-01-14T03:58:17.446Z,1.80
2019-01-14T04:00:46.056Z,1.70
2019-01-14T04:03:14.658Z,1.70
2019-01-14T04:05:43.231Z,1.70
2019-01-14T04:08:11.791Z,1.60
2019-01-14T04:10:40.420Z,1.60
2019-01-14T04:13:09.125Z,1.60
2019-01-14T04:15:37.740Z,1.50
2019-01-14T04:18:06.308Z,1.50
2019-01-14T04:20:35.029Z,1.40
2019-01-14T04:23:03.703Z,1.40
2019-01-14T04:25:32.237Z,1.40
2019-01-14T04:28:00.861Z,1.40
2019-01-14T04:30:29.508Z,1.40
2019-01-14T04:32:58.104Z,1.30
2019-01-14T04:35:26.782Z,1.30
2019-01-14T04:37:55.388Z,1.30
2019-01-14T04:40:23.937Z,1.30
2019-01-14T04:42:52.536Z,1.30
2019-01-14T04:45:21.138Z,1.30
2019-01-14T04:47:49.759Z,1.30
2019-01-14T04:50:20.756Z,1.30
2019-01-14T04:52:49.401Z,1.20
2019-01-14T04:55:18.082Z,1.20
2019-01-14T04:57:45.994Z,1.20
2019-01-14T05:00:17.085Z,1.20
2019-01-14T05:02:45.761Z,1.20
2019-01-14T05:05:14.611Z,1.20
2019-01-14T05:07:43.481Z,1.10
2019-01-14T05:10:15.311Z,1.00
2019-01-14T05:12:44.662Z,1.00
2019-01-14T05:15:13.563Z,0.90
2019-01-14T05:17:41.330Z,0.90
2019-01-14T05:20:12.714Z,0.80
2019-01-14T05:22:40.528Z,0.80
2019-01-14T05:25:08.604Z,0.70
2019-01-14T05:27:36.526Z,0.70
2019-01-14T05:30:06.093Z,0.70
2019-01-14T05:32:34.670Z,0.60
2019-01-14T05:35:03.796Z,0.60
2019-01-14T05:37:37.350Z,0.70
2019-01-14T05:40:03.199Z,0.60
2019-01-14T05:42:31.800Z,0.60
2019-01-14T05:45:00.291Z,0.60
2019-01-14T05:47:29.003Z,0.60
2019-01-14T05:49:57.669Z,0.60
2019-01-14T05:52:26.314Z,0.60
2019-01-14T05:54:54.916Z,0.60
2019-01-14T05:57:23.543Z,0.50
2019-01-14T05:59:52.470Z,0.50
2019-01-14T06:02:20.973Z,0.50
2019-01-14T06:04:49.980Z,0.50
2019-01-14T06:07:18.607Z,0.50
2019-01-14T06:09:47.246Z,0.40
2019-01-14T06:12:15.993Z,0.40
2019-01-14T06:14:44.688Z,0.30
2019-01-14T06:17:13.712Z,0.30
2019-01-14T06:19:42.589Z,0.30
2019-01-14T06:22:11.127Z,0.30
2019-01-14T06:24:39.766Z,0.30
2019-01-14T06:27:08.828Z,0.30
2019-01-14T06:29:37.528Z,0.30
2019-01-14T06:32:06.115Z,0.30
2019-01-14T06:34:34.888Z,0.30
2019-01-14T06:37:04.308Z,0.30
2019-01-14T06:39:32.954Z,0.30
2019-01-14T06:42:01.397Z,0.30
2019-01-14T06:44:29.989Z,0.30
2019-01-14T06:46:58.667Z,0.30
2019-01-14T06:49:27.263Z,0.30
2019-01-14T06:51:55.911Z,0.30
2019-01-14T06:54:24.370Z,0.30
2019-01-14T06:56:53.579Z,0.30
2019-01-14T06:59:22.189Z,0.30
2019-01-14T07:01:50.864Z,0.30
2019-01-14T07:04:19.506Z,0.30
2019-01-14T07:06:48.186Z,0.30
2019-01-14T07:09:16.808Z,0.30
2019-01-14T07:11:45.882Z,0.30
2019-01-14T07:14:14.565Z,0.30
2019-01-14T07:16:43.855Z,0.30
2019-01-14T07:19:12.467Z,0.30
2019-01-14T07:21:40.993Z,0.30
2019-01-14T07:24:09.584Z,0.40
2019-01-14T07:26:38.122Z,0.40
2019-01-14T07:29:06.602Z,0.40
2019-01-14T07:31:35.286Z,0.40
2019-01-14T07:34:03.994Z,0.40
2019-01-14T07:36:32.621Z,0.40
2019-01-14T07:39:01.331Z,0.40
2019-01-14T07:41:29.994Z,0.40
2019-01-14T07:43:58.455Z,0.40
2019-01-14T07:46:27.082Z,0.50
2019-01-14T07:48:55.881Z,0.50
2019-01-14T07:51:24.533Z,0.50
2019-01-14T07:53:53.145Z,0.50
2019-01-14T07:56:21.945Z,0.50
2019-01-14T07:58:50.417Z,0.50
2019-01-14T08:01:18.891Z,0.50
2019-01-14T08:03:47.472Z,0.60
2019-01-14T08:06:16.102Z,0.60
2019-01-14T08:08:44.637Z,0.60
2019-01-14T08:11:13.227Z,0.50
2019-01-14T08:13:41.821Z,0.60
2019-01-14T08:16:10.460Z,0.60
2019-01-14T08:18:38.991Z,0.60
2019-01-14T08:21:07.602Z,0.70
2019-01-14T08:23:36.622Z,0.70
2019-01-14T08:26:05.385Z,0.80
2019-01-14T08:28:33.894Z,0.80
2019-01-14T08:31:02.337Z,0.70
2019-01-14T08:33:31.015Z,0.70
2019-01-14T08:35:59.675Z,0.60
2019-01-14T08:38:28.216Z,0.60
2019-01-14T08:40:57.224Z,0.70
2019-01-14T08:43:27.545Z,0.70
2019-01-14T08:45:57.058Z,0.70
2019-01-14T08:48:25.667Z,0.60
2019-01-14T08:50:54.203Z,0.60
2019-01-14T08:53:23.007Z,0.60
2019-01-14T08:55:51.601Z,0.60
2019-01-14T08:58:20.168Z,0.60
2019-01-14T09:00:48.764Z,0.60
2019-01-14T09:03:17.339Z,0.50
2019-01-14T09:05:45.801Z,0.60
2019-01-14T09:08:14.461Z,0.50
2019-01-14T09:10:43.106Z,0.50
2019-01-14T09:13:11.672Z,0.50
2019-01-14T09:15:40.226Z,0.40
2019-01-14T09:18:08.849Z,0.40
2019-01-14T09:20:37.525Z,0.40
2019-01-14T09:23:06.179Z,0.30
2019-01-14T09:25:34.811Z,0.30
2019-01-14T09:28:03.393Z,0.20
2019-01-14T09:30:31.971Z,0.20
2019-01-14T09:33:00.528Z,0.20
2019-01-14T09:35:29.104Z,0.10
2019-01-14T09:37:57.755Z,-0.10
2019-01-14T09:40:26.341Z,-0.20
2019-01-14T09:42:54.982Z,-0.30
2019-01-14T09:45:23.577Z,-0.30
2019-01-14T09:47:52.317Z,-0.30
2019-01-14T09:50:21.236Z,-0.40
2019-01-14T09:52:49.845Z,-0.40
2019-01-14T09:55:19.178Z,-0.40
2019-01-14T09:57:46.925Z,-0.40
2019-01-14T10:00:14.702Z,-0.50
2019-01-14T10:02:42.667Z,-0.50
2019-01-14T10:05:14.394Z,-0.50
2019-01-14T10:07:42.934Z,-0.60
2019-01-14T10:10:11.776Z,-0.60
2019-01-14T10:12:39.591Z,-0.70
2019-01-14T10:15:11.152Z,-0.60
2019-01-14T10:17:40.390Z,-0.50
2019-01-14T10:20:10.659Z,-0.50
2019-01-14T10:22:39.386Z,-0.50
2019-01-14T10:25:09.540Z,-0.50
2019-01-14T10:27:38.211Z,-0.50
2019-01-14T10:30:12.499Z,-0.30
2019-01-14T10:32:41.081Z,-0.20
2019-01-14T10:35:09.796Z,0.00
2019-01-14T10:37:38.403Z,0.20
2019-01-14T10:40:10.137Z,0.30
2019-01-14T10:42:38.661Z,0.40
2019-01-14T10:45:10.471Z,0.50
2019-01-14T10:47:39.143Z,0.60
2019-01-14T10:50:10.778Z,0.80
2019-01-14T10:52:39.232Z,0.80
2019-01-14T10:55:12.412Z,0.90
2019-01-14T10:57:39.154Z,0.80
2019-01-14T11:00:10.736Z,0.80
2019-01-14T11:02:40.757Z,0.70
2019-01-14T11:05:10.995Z,0.80
2019-01-14T11:07:39.605Z,0.80
2019-01-14T11:10:10.313Z,0.90
2019-01-14T11:12:38.992Z,0.90
2019-01-14T11:15:16.305Z,0.80
2019-01-14T11:17:44.946Z,0.80
2019-01-14T11:20:19.527Z,0.80
2019-01-14T11:22:48.293Z,0.80
2019-01-14T11:25:17.067Z,0.80
2019-01-14T11:27:45.675Z,0.80
2019-01-14T11:30:22.758Z,0.80
2019-01-14T11:32:51.431Z,0.80
2019-01-14T11:35:20.178Z,0.80
2019-01-14T11:37:48.962Z,0.80
2019-01-14T11:40:20.761Z,0.90
2019-01-14T11:42:49.373Z,1.00
2019-01-14T11:45:18.110Z,1.00
2019-01-14T11:47:46.715Z,1.10
2019-01-14T11:50:17.295Z,1.00
2019-01-14T11:52:46.462Z,1.00
2019-01-14T11:55:15.088Z,0.90
2019-01-14T11:57:43.761Z,0.90
2019-01-14T12:00:23.129Z,0.80
2019-01-14T12:02:51.734Z,0.90
2019-01-14T12:05:20.704Z,1.00
2019-01-14T12:07:49.472Z,1.00
2019-01-14T12:10:18.154Z,1.00
2019-01-14T12:12:46.736Z,1.00
2019-01-14T12:15:18.237Z,1.00
2019-01-14T12:17:46.765Z,1.00
2019-01-14T12:20:15.967Z,1.10
2019-01-14T12:27:53.701Z,1.00
2019-01-14T12:30:28.103Z,1.00
2019-01-14T12:32:56.903Z,1.00
2019-01-14T12:35:25.601Z,1.00
2019-01-14T12:37:54.892Z,0.90
2019-01-14T12:40:25.199Z,0.90
2019-01-14T12:42:53.970Z,0.90
2019-01-14T12:45:25.327Z,1.10
2019-01-14T12:47:54.018Z,1.30
2019-01-14T12:50:24.286Z,1.50
2019-01-14T12:52:52.833Z,1.60
2019-01-14T12:55:21.522Z,1.50
2019-01-14T12:57:50.230Z,1.40
2019-01-14T13:00:24.124Z,1.20
2019-01-14T13:02:52.742Z,1.10
2019-01-14T13:05:22.375Z,1.00
2019-01-14T13:07:51.065Z,0.90
2019-01-14T13:10:20.218Z,0.80
2019-01-14T13:12:48.768Z,0.80
2019-01-14T13:15:19.640Z,0.70
2019-01-14T13:17:48.323Z,0.70
2019-01-14T13:20:19.583Z,0.70
2019-01-14T13:22:48.155Z,0.60
2019-01-14T13:25:16.761Z,0.40
2019-01-14T13:27:45.870Z,0.30
2019-01-14T13:30:30.260Z,0.20
2019-01-14T13:32:59.247Z,0.20
2019-01-14T13:35:27.867Z,0.20
2019-01-14T13:37:56.455Z,0.20
2019-01-14T13:40:25.161Z,0.10
2019-01-14T13:42:53.770Z,0.10
2019-01-14T13:45:23.303Z,0.10
2019-01-14T13:47:51.899Z,0.10
2019-01-14T13:50:22.388Z,0.10
2019-01-14T13:52:51.032Z,0.20
2019-01-14T13:55:20.447Z,0.30
2019-01-14T13:57:49.121Z,0.20
2019-01-14T14:00:23.081Z,0.20
2019-01-14T14:02:52.016Z,0.10
2019-01-14T14:05:20.559Z,0.00
2019-01-14T14:07:49.076Z,-0.10
2019-01-14T14:10:22.804Z,-0.30
2019-01-14T14:12:52.242Z,-0.30
2019-01-14T14:15:22.028Z,-0.40
2019-01-14T14:17:52.530Z,-0.50
2019-01-14T14:20:21.561Z,-0.50
2019-01-14T14:22:50.459Z,-0.50
2019-01-14T14:25:19.528Z,-0.60
2019-01-14T14:27:48.341Z,-0.50
2019-01-14T14:30:34.845Z,-0.50
2019-01-14T14:33:03.773Z,-0.50
2019-01-14T14:35:32.962Z,-0.50
2019-01-14T14:38:01.881Z,-0.50
2019-01-14T14:40:32.666Z,-0.50
2019-01-14T14:43:02.663Z,-0.40
2019-01-14T14:45:32.123Z,-0.40
2019-01-14T14:48:01.595Z,-0.40
2019-01-14T14:50:31.283Z,-0.30
2019-01-14T14:53:01.631Z,-0.20
2019-01-14T14:55:30.245Z,-0.20
2019-01-14T14:57:58.946Z,-0.20
2019-01-14T15:00:27.588Z,-0.20
2019-01-14T15:02:56.126Z,-0.10
2019-01-14T15:05:25.330Z,-0.10
2019-01-14T15:07:54.974Z,-0.10
2019-01-14T15:10:23.639Z,-0.10
2019-01-14T15:12:52.573Z,-0.20
2019-01-14T15:15:22.909Z,-0.50
2019-01-14T15:17:51.729Z,-0.70
2019-01-14T15:20:22.715Z,-0.90
2019-01-14T15:22:51.534Z,-1.10
2019-01-14T15:25:20.127Z,-1.30
2019-01-14T15:27:48.767Z,-1.40
2019-01-14T15:30:20.291Z,-1.50
2019-01-14T15:32:48.806Z,-1.60
2019-01-14T15:35:17.479Z,-1.80
2019-01-14T15:37:46.037Z,-1.80
2019-01-14T15:40:16.704Z,-1.90
2019-01-14T15:42:45.304Z,-1.90
2019-01-14T15:45:19.175Z,-1.90
2019-01-14T15:47:47.771Z,-2.00
2019-01-14T15:50:16.282Z,-2.00
2019-01-14T15:52:44.768Z,-2.00
2019-01-14T15:55:16.654Z,-2.00
2019-01-14T15:57:45.128Z,-2.00
2019-01-14T16:00:18.447Z,-2.00
2019-01-14T16:02:47.345Z,-2.00
2019-01-14T16:05:17.360Z,-2.00
2019-01-14T16:07:48.374Z,-2.00
2019-01-14T16:10:23.903Z,-2.00
2019-01-14T16:12:52.575Z,-1.90
2019-01-14T16:15:22.843Z,-1.90
2019-01-14T16:17:51.425Z,-1.90
2019-01-14T16:20:21.930Z,-1.90
2019-01-14T16:22:50.655Z,-1.90
2019-01-14T16:25:19.385Z,-1.90
2019-01-14T16:27:48.088Z,-1.90
2019-01-14T16:30:19.739Z,-1.90
2019-01-14T16:32:48.443Z,-1.90
2019-01-14T16:35:17.100Z,-1.90
2019-01-14T16:37:47.793Z,-1.90
2019-01-14T16:40:18.348Z,-2.00
2019-01-14T16:42:47.133Z,-2.00
2019-01-14T16:45:20.487Z,-2.00
2019-01-14T16:47:48.999Z,-2.00
2019-01-14T16:50:17.915Z,-2.10
2019-01-14T16:52:46.441Z,-2.10
2019-01-14T16:55:16.677Z,-2.10
2019-01-14T16:57:45.295Z,-2.20
2019-01-14T17:00:16.613Z,-2.20
2019-01-14T17:02:45.278Z,-2.20
2019-01-14T17:05:14.676Z,-2.20
2019-01-14T17:07:43.125Z,-2.30
2019-01-14T17:10:13.916Z,-2.30
2019-01-14T17:12:42.568Z,-2.30
2019-01-14T17:15:11.358Z,-2.30
2019-01-14T17:17:39.923Z,-2.40
2019-01-14T17:20:12.958Z,-2.40
2019-01-14T17:22:41.426Z,-2.40
2019-01-14T17:25:10.233Z,-2.40
2019-01-14T17:27:38.764Z,-2.40
2019-01-14T17:30:12.574Z,-2.40
2019-01-14T17:32:41.099Z,-2.40
2019-01-14T17:35:09.790Z,-2.40
2019-01-14T17:37:38.327Z,-2.50
2019-01-14T17:40:09.784Z,-2.50
2019-01-14T17:42:38.360Z,-2.50
2019-01-14T17:45:09.066Z,-2.40
2019-01-14T17:47:37.580Z,-2.40
2019-01-14T17:50:15.035Z,-2.50
2019-01-14T17:52:43.625Z,-2.50
2019-01-14T17:55:12.231Z,-2.50
2019-01-14T17:57:42.037Z,-2.50
2019-01-14T18:00:11.329Z,-2.50
2019-01-14T18:02:39.023Z,-2.50
2019-01-14T18:05:07.965Z,-2.50
2019-01-14T18:07:36.507Z,-2.40
2019-01-14T18:10:08.123Z,-2.40
2019-01-14T18:12:36.606Z,-2.40
2019-01-14T18:15:05.162Z,-2.40
2019-01-14T18:17:34.198Z,-2.30
2019-01-14T18:20:02.031Z,-2.30
2019-01-14T18:22:30.611Z,-2.30
2019-01-14T18:24:59.171Z,-2.20
2019-01-14T18:27:27.728Z,-2.20
2019-01-14T18:29:56.190Z,-2.20
2019-01-14T18:32:24.772Z,-2.20
2019-01-14T18:34:53.330Z,-2.20
2019-01-14T18:37:21.849Z,-2.30
2019-01-14T18:39:50.389Z,-2.30
2019-01-14T18:42:18.996Z,-2.40
2019-01-14T18:44:47.603Z,-2.40
2019-01-14T18:47:16.074Z,-2.40
2019-01-14T18:49:44.549Z,-2.50
2019-01-14T18:52:13.128Z,-2.50
2019-01-14T18:54:41.704Z,-2.50
2019-01-14T18:57:10.228Z,-2.50
2019-01-14T18:59:38.904Z,-2.50
2019-01-14T19:02:06.626Z,-2.50
2019-01-14T19:04:35.170Z,-2.50
2019-01-14T19:07:03.775Z,-2.50
2019-01-14T19:09:32.314Z,-2.50
2019-01-14T19:12:00.939Z,-2.50
2019-01-14T19:14:29.379Z,-2.50
2019-01-14T19:16:58.361Z,-2.50
2019-01-14T19:19:26.841Z,-2.40
2019-01-14T19:21:55.319Z,-2.40
2019-01-14T19:24:24.055Z,-2.30
2019-01-14T19:26:52.587Z,-2.30
2019-01-14T19:29:21.122Z,-2.20
2019-01-14T19:31:49.673Z,-2.20
2019-01-14T19:34:18.128Z,-2.10
2019-01-14T19:36:46.717Z,-2.10
2019-01-14T19:39:15.216Z,-2.00
2019-01-14T19:41:43.901Z,-2.00
2019-01-14T19:44:12.397Z,-1.90
2019-01-14T19:46:40.860Z,-1.90
2019-01-14T19:49:09.421Z,-1.80
2019-01-14T19:51:37.872Z,-1.80
2019-01-14T19:54:06.748Z,-1.80
2019-01-14T19:56:36.680Z,-1.80
2019-01-14T19:59:06.174Z,-1.80
2019-01-14T20:01:35.005Z,-1.80
2019-01-14T20:04:05.004Z,-1.80
2019-01-14T20:06:33.813Z,-1.70
2019-01-14T20:09:02.452Z,-1.70
2019-01-14T20:11:31.005Z,-1.70
2019-01-14T20:13:59.527Z,-1.70
2019-01-14T20:16:28.067Z,-1.70
2019-01-14T20:18:56.834Z,-1.70
2019-01-14T20:21:25.400Z,-1.60
2019-01-14T20:23:58.421Z,-1.70
2019-01-14T20:26:27.225Z,-1.70
2019-01-14T20:28:55.852Z,-1.70
2019-01-14T20:31:24.736Z,-1.70
2019-01-14T20:33:53.548Z,-1.70
2019-01-14T20:36:25.185Z,-1.70
2019-01-14T20:38:53.808Z,-1.70
2019-01-14T20:41:24.071Z,-1.60
2019-01-14T20:43:53.122Z,-1.60
2019-01-14T20:46:23.276Z,-1.60
2019-01-14T20:48:53.010Z,-1.60
2019-01-14T20:51:22.659Z,-1.60
2019-01-14T20:53:51.786Z,-1.60
2019-01-14T20:56:20.305Z,-1.60
2019-01-14T20:58:48.869Z,-1.60
2019-01-14T21:01:17.530Z,-1.60
2019-01-14T21:03:46.100Z,-1.60
2019-01-14T21:06:15.406Z,-1.60
2019-01-14T21:08:43.901Z,-1.60
2019-01-14T21:11:12.406Z,-1.60
2019-01-14T21:13:41.645Z,-1.60
2019-01-14T21:16:11.293Z,-1.70
2019-01-14T21:18:41.030Z,-1.70
2019-01-14T21:21:09.877Z,-1.70
2019-01-14T21:23:38.345Z,-1.70
2019-01-14T21:26:06.901Z,-1.70
2019-01-14T21:28:36.042Z,-1.70
2019-01-14T21:31:06.972Z,-1.70
2019-01-14T21:33:35.675Z,-1.60
2019-01-14T21:36:04.506Z,-1.60
2019-01-14T21:38:33.230Z,-1.60
2019-01-14T21:41:02.589Z,-1.60
2019-01-14T21:43:31.060Z,-1.60
2019-01-14T21:45:59.522Z,-1.60
2019-01-14T21:48:28.093Z,-1.60
2019-01-14T21:50:56.734Z,-1.60
2019-01-14T21:53:24.551Z,-1.60
2019-01-14T21:55:53.196Z,-1.60
2019-01-14T21:58:21.700Z,-1.60
2019-01-14T22:00:50.286Z,-1.60
2019-01-14T22:03:18.877Z,-1.50
2019-01-14T22:05:47.354Z,-1.50
2019-01-14T22:08:16.068Z,-1.50
2019-01-14T22:10:43.787Z,-1.50
2019-01-14T22:13:12.325Z,-1.50
2019-01-14T22:15:40.962Z,-1.50
2019-01-14T22:18:09.559Z,-1.50
2019-01-14T22:20:38.021Z,-1.50
2019-01-14T22:23:06.766Z,-1.50
2019-01-14T22:25:35.567Z,-1.50
2019-01-14T22:28:04.157Z,-1.50
2019-01-14T22:30:32.740Z,-1.50
2019-01-14T22:33:00.612Z,-1.50
2019-01-14T22:35:29.200Z,-1.50
2019-01-14T22:37:57.703Z,-1.50
2019-01-14T22:40:26.309Z,-1.50
2019-01-14T22:42:55.330Z,-1.50
2019-01-14T22:45:23.931Z,-1.50
2019-01-14T22:47:52.544Z,-1.40
2019-01-14T22:50:21.142Z,-1.40
2019-01-14T22:52:49.725Z,-1.40
2019-01-14T22:55:18.415Z,-1.40
2019-01-14T22:57:46.874Z,-1.40
2019-01-14T23:00:22.849Z,-1.50
2019-01-14T23:02:51.463Z,-1.40
2019-01-14T23:05:20.216Z,-1.40
2019-01-14T23:07:48.950Z,-1.40
2019-01-14T23:10:17.566Z,-1.40
2019-01-14T23:12:46.074Z,-1.40
2019-01-14T23:15:14.738Z,-1.40
2019-01-14T23:17:43.483Z,-1.30
2019-01-14T23:20:12.182Z,-1.30
2019-01-14T23:22:40.800Z,-1.30
2019-01-14T23:25:09.511Z,-1.30
2019-01-14T23:27:38.035Z,-1.30
2019-01-14T23:30:09.555Z,-1.30
2019-01-14T23:32:38.207Z,-1.30
2019-01-14T23:35:07.911Z,-1.30
2019-01-14T23:37:36.415Z,-1.30
2019-01-14T23:40:06.626Z,-1.30
2019-01-14T23:42:35.421Z,-1.30
2019-01-14T23:45:05.486Z,-1.30
2019-01-14T23:47:34.091Z,-1.30
2019-01-14T23:50:02.691Z,-1.20
2019-01-14T23:52:31.250Z,-1.20
2019-01-14T23:54:59.961Z,-1.20
2019-01-14T23:57:28.552Z,-1.20
2019-01-14T23:59:57.087Z,-1.20
